createdAt,value
2018-06-01T00:00:22.998Z,989.86
2018-06-01T00:01:32.742Z,989.83
2018-06-01T00:02:42.754Z,989.84
2018-06-01T00:03:52.510Z,989.81
2018-06-01T00:05:02.527Z,989.81
2018-06-01T00:06:12.278Z,989.75
2018-06-01T00:07:22.302Z,989.78
2018-06-01T00:08:32.320Z,989.77
2018-06-01T00:09:42.336Z,989.75
2018-06-01T00:10:52.367Z,989.72
2018-06-01T00:12:02.119Z,989.72
2018-06-01T00:13:12.144Z,989.72
2018-06-01T00:14:21.893Z,989.74
2018-06-01T00:15:31.643Z,989.69
2018-06-01T00:16:41.401Z,989.68
2018-06-01T00:17:51.144Z,989.67
2018-06-01T00:19:00.895Z,989.69
2018-06-01T00:20:10.376Z,989.69
2018-06-01T00:21:20.121Z,989.69
2018-06-01T00:22:29.607Z,989.68
2018-06-01T00:23:39.372Z,989.71
2018-06-01T00:24:49.389Z,989.68
2018-06-01T00:25:59.399Z,989.69
2018-06-01T00:27:09.412Z,989.66
2018-06-01T00:28:19.157Z,989.66
2018-06-01T00:29:29.176Z,989.69
2018-06-01T00:30:39.184Z,989.62
2018-06-01T00:31:49.197Z,989.68
2018-06-01T00:32:58.689Z,989.69
2018-06-01T00:34:08.172Z,989.62
2018-06-01T00:35:18.219Z,989.7
2018-06-01T00:36:27.716Z,989.68
2018-06-01T00:37:37.740Z,989.64
2018-06-01T00:38:47.764Z,989.64
2018-06-01T00:39:57.793Z,989.65
2018-06-01T00:41:07.809Z,989.67
2018-06-01T00:42:17.030Z,989.68
2018-06-01T00:43:26.510Z,989.67
2018-06-01T00:44:36.533Z,989.68
2018-06-01T00:45:46.061Z,989.65
2018-06-01T00:46:56.079Z,989.74
2018-06-01T00:48:05.570Z,989.74
2018-06-01T00:49:15.319Z,989.73
2018-06-01T00:50:25.343Z,989.75
2018-06-01T00:51:34.559Z,989.71
2018-06-01T00:52:44.580Z,989.74
2018-06-01T00:53:54.600Z,989.7
2018-06-01T00:55:04.352Z,989.7
2018-06-01T00:56:14.104Z,989.75
2018-06-01T00:57:23.863Z,989.67
2018-06-01T00:58:33.877Z,989.71
2018-06-01T00:59:43.622Z,989.67
2018-06-01T01:00:52.844Z,989.68
2018-06-01T01:02:02.590Z,989.68
2018-06-01T01:03:12.342Z,989.63
2018-06-01T01:04:22.354Z,989.68
2018-06-01T01:05:31.839Z,989.66
2018-06-01T01:06:41.855Z,989.64
2018-06-01T01:07:51.337Z,989.64
2018-06-01T01:09:01.091Z,989.62
2018-06-01T01:10:11.104Z,989.63
2018-06-01T01:11:21.123Z,989.62
2018-06-01T01:12:30.886Z,989.6
2018-06-01T01:13:40.907Z,989.57
2018-06-01T01:14:50.396Z,989.6
2018-06-01T01:16:00.040Z,989.57
2018-06-01T01:17:09.789Z,989.6
2018-06-01T01:18:19.799Z,989.55
2018-06-01T01:19:29.818Z,989.57
2018-06-01T01:20:39.582Z,989.57
2018-06-01T01:21:49.160Z,989.54
2018-06-01T01:22:59.185Z,989.57
2018-06-01T01:24:09.200Z,989.52
2018-06-01T01:25:19.213Z,989.54
2018-06-01T01:26:29.232Z,989.52
2018-06-01T01:27:38.977Z,989.52
2018-06-01T01:28:48.456Z,989.53
2018-06-01T01:29:58.574Z,989.56
2018-06-01T01:31:08.052Z,989.56
2018-06-01T01:32:18.071Z,989.52
2018-06-01T01:33:28.083Z,989.52
2018-06-01T01:34:38.132Z,989.53
2018-06-01T01:35:48.166Z,989.54
2018-06-01T01:36:58.183Z,989.54
2018-06-01T01:38:07.929Z,989.57
2018-06-01T01:39:17.430Z,989.54
2018-06-01T01:40:27.443Z,989.56
2018-06-01T01:41:37.197Z,989.56
2018-06-01T01:42:46.947Z,989.59
2018-06-01T01:43:56.961Z,989.59
2018-06-01T01:45:06.709Z,989.58
2018-06-01T01:46:16.499Z,989.57
2018-06-01T01:47:26.519Z,989.57
2018-06-01T01:48:36.535Z,989.58
2018-06-01T01:49:46.562Z,989.53
2018-06-01T01:50:56.586Z,989.55
2018-06-01T01:52:06.342Z,989.53
2018-06-01T01:53:15.823Z,989.52
2018-06-01T01:54:25.841Z,989.56
2018-06-01T01:55:35.583Z,989.5
2018-06-01T01:56:45.597Z,989.54
2018-06-01T01:57:55.610Z,989.51
2018-06-01T01:59:04.830Z,989.53
2018-06-01T02:00:14.849Z,989.49
2018-06-01T02:01:24.331Z,989.53
2018-06-01T02:02:34.402Z,989.5
2018-06-01T02:03:44.413Z,989.5
2018-06-01T02:04:54.159Z,989.5
2018-06-01T02:06:03.906Z,989.5
2018-06-01T02:07:13.668Z,989.49
2018-06-01T02:08:23.724Z,989.51
2018-06-01T02:09:33.744Z,989.52
2018-06-01T02:10:43.499Z,989.49
2018-06-01T02:11:52.981Z,989.54
2018-06-01T02:13:03.000Z,989.51
2018-06-01T02:14:12.751Z,989.49
2018-06-01T02:15:22.551Z,989.54
2018-06-01T02:16:32.564Z,989.55
2018-06-01T02:17:42.317Z,989.55
2018-06-01T02:18:52.331Z,989.54
2018-06-01T02:20:02.353Z,989.55
2018-06-01T02:21:12.101Z,989.54
2018-06-01T02:22:22.113Z,989.54
2018-06-01T02:23:32.126Z,989.54
2018-06-01T02:24:42.141Z,989.55
2018-06-01T02:25:51.885Z,989.53
2018-06-01T02:27:01.364Z,989.51
2018-06-01T02:28:11.115Z,989.53
2018-06-01T02:29:20.865Z,989.55
2018-06-01T02:30:30.344Z,989.58
2018-06-01T02:31:39.577Z,989.57
2018-06-01T02:32:49.604Z,989.58
2018-06-01T02:33:59.382Z,989.56
2018-06-01T02:35:08.865Z,989.57
2018-06-01T02:36:18.879Z,989.59
2018-06-01T02:37:28.359Z,989.56
2018-06-01T02:38:38.387Z,989.56
2018-06-01T02:39:47.882Z,989.56
2018-06-01T02:40:57.907Z,989.54
2018-06-01T02:42:07.663Z,989.55
2018-06-01T02:43:17.687Z,989.55
2018-06-01T02:44:27.716Z,989.52
2018-06-01T02:45:37.478Z,989.55
2018-06-01T02:46:47.510Z,989.54
2018-06-01T02:47:57.533Z,989.54
2018-06-01T02:49:06.751Z,989.52
2018-06-01T02:50:15.974Z,989.55
2018-06-01T02:51:25.993Z,989.53
2018-06-01T02:52:35.776Z,989.56
2018-06-01T02:53:45.530Z,989.55
2018-06-01T02:54:55.544Z,989.52
2018-06-01T02:56:05.031Z,989.53
2018-06-01T02:57:15.059Z,989.51
2018-06-01T02:58:25.072Z,989.54
2018-06-01T02:59:34.566Z,989.52
2018-06-01T03:03:24.990Z,989.49
2018-06-01T03:04:34.745Z,989.48
2018-06-01T03:05:44.511Z,989.51
2018-06-01T03:06:54.263Z,989.5
2018-06-01T03:08:04.025Z,989.46
2018-06-01T03:09:14.053Z,989.49
2018-06-01T03:10:24.088Z,989.48
2018-06-01T03:11:33.844Z,989.54
2018-06-01T03:12:43.330Z,989.53
2018-06-01T03:13:53.082Z,989.53
2018-06-01T03:15:02.834Z,989.52
2018-06-01T03:16:12.857Z,989.51
2018-06-01T03:17:22.877Z,989.5
2018-06-01T03:18:32.899Z,989.49
2018-06-01T03:19:42.653Z,989.5
2018-06-01T03:20:52.406Z,989.48
2018-06-01T03:22:02.429Z,989.46
2018-06-01T03:23:12.177Z,989.45
2018-06-01T03:24:22.201Z,989.43
2018-06-01T03:25:31.676Z,989.44
2018-06-01T03:26:41.693Z,989.43
2018-06-01T03:27:51.440Z,989.44
2018-06-01T03:29:01.466Z,989.45
2018-06-01T03:30:11.481Z,989.48
2018-06-01T03:31:21.517Z,989.51
2018-06-01T03:32:31.277Z,989.49
2018-06-01T03:33:41.028Z,989.49
2018-06-01T03:34:51.042Z,989.51
2018-06-01T03:36:00.252Z,989.48
2018-06-01T03:37:09.733Z,989.47
2018-06-01T03:38:19.751Z,989.45
2018-06-01T03:39:29.765Z,989.51
2018-06-01T03:40:39.509Z,989.48
2018-06-01T03:41:49.258Z,989.52
2018-06-01T03:42:59.015Z,989.51
2018-06-01T03:44:08.762Z,989.5
2018-06-01T03:45:18.776Z,989.5
2018-06-01T03:46:28.260Z,989.51
2018-06-01T03:47:38.298Z,989.52
2018-06-01T03:48:48.330Z,989.5
2018-06-01T03:49:58.351Z,989.49
2018-06-01T03:51:07.835Z,989.49
2018-06-01T03:52:17.582Z,989.48
2018-06-01T03:53:27.327Z,989.48
2018-06-01T03:54:37.078Z,989.51
2018-06-01T03:55:47.099Z,989.49
2018-06-01T03:56:56.862Z,989.49
2018-06-01T03:58:06.877Z,989.53
2018-06-01T03:59:16.906Z,989.49
2018-06-01T04:00:26.119Z,989.52
2018-06-01T04:01:36.189Z,989.5
2018-06-01T04:02:45.936Z,989.52
2018-06-01T04:03:55.818Z,989.5
2018-06-01T04:05:05.848Z,989.52
2018-06-01T04:06:15.864Z,989.54
2018-06-01T04:07:25.887Z,989.53
2018-06-01T04:08:35.913Z,989.53
2018-06-01T04:09:45.666Z,989.51
2018-06-01T04:10:55.430Z,989.53
2018-06-01T04:12:04.911Z,989.55
2018-06-01T04:13:14.393Z,989.58
2018-06-01T04:14:24.426Z,989.52
2018-06-01T04:15:34.183Z,989.55
2018-06-01T04:16:44.204Z,989.5
2018-06-01T04:17:54.219Z,989.51
2018-06-01T04:19:03.971Z,989.56
2018-06-01T04:20:13.984Z,989.52
2018-06-01T04:21:24.017Z,989.55
2018-06-01T04:22:34.037Z,989.54
2018-06-01T04:23:44.048Z,989.5
2018-06-01T04:24:53.894Z,989.5
2018-06-01T04:26:03.930Z,989.47
2018-06-01T04:27:13.408Z,989.49
2018-06-01T04:28:23.424Z,989.45
2018-06-01T04:29:33.169Z,989.45
2018-06-01T04:30:43.185Z,989.43
2018-06-01T04:31:53.203Z,989.45
2018-06-01T04:33:03.228Z,989.43
2018-06-01T04:34:12.973Z,989.46
2018-06-01T04:35:22.728Z,989.44
2018-06-01T04:36:32.481Z,989.44
2018-06-01T04:37:42.544Z,989.44
2018-06-01T04:38:52.289Z,989.44
2018-06-01T04:40:01.769Z,989.42
2018-06-01T04:41:11.524Z,989.39
2018-06-01T04:42:21.296Z,989.37
2018-06-01T04:43:31.054Z,989.39
2018-06-01T04:44:41.075Z,989.39
2018-06-01T04:45:51.102Z,989.4
2018-06-01T04:47:00.854Z,989.4
2018-06-01T04:48:10.334Z,989.41
2018-06-01T04:49:20.426Z,989.44
2018-06-01T04:50:30.490Z,989.49
2018-06-01T04:51:40.514Z,989.46
2018-06-01T04:52:50.535Z,989.48
2018-06-01T04:54:00.295Z,989.53
2018-06-01T04:55:09.777Z,989.53
2018-06-01T04:56:19.530Z,989.53
2018-06-01T04:57:29.280Z,989.57
2018-06-01T04:58:39.294Z,989.56
2018-06-01T04:59:48.777Z,989.59
2018-06-01T05:00:58.790Z,989.56
2018-06-01T05:02:08.537Z,989.54
2018-06-01T05:03:18.294Z,989.52
2018-06-01T05:04:28.334Z,989.51
2018-06-01T05:05:38.353Z,989.48
2018-06-01T05:06:48.372Z,989.42
2018-06-01T05:07:58.393Z,989.4
2018-06-01T05:09:08.151Z,989.37
2018-06-01T05:10:18.169Z,989.39
2018-06-01T05:11:28.191Z,989.37
2018-06-01T05:12:38.209Z,989.41
2018-06-01T05:13:47.959Z,989.38
2018-06-01T05:14:57.721Z,989.36
2018-06-01T05:16:07.204Z,989.36
2018-06-01T05:17:17.102Z,989.34
2018-06-01T05:18:27.118Z,989.35
2018-06-01T05:19:36.878Z,989.32
2018-06-01T05:20:46.897Z,989.32
2018-06-01T05:21:56.642Z,989.33
2018-06-01T05:23:06.131Z,989.33
2018-06-01T05:24:15.877Z,989.32
2018-06-01T05:25:25.895Z,989.34
2018-06-01T05:26:35.645Z,989.3
2018-06-01T05:27:45.400Z,989.29
2018-06-01T05:28:55.413Z,989.31
2018-06-01T05:30:05.437Z,989.37
2018-06-01T05:31:15.189Z,989.36
2018-06-01T05:32:24.942Z,989.35
2018-06-01T05:33:34.421Z,989.34
2018-06-01T05:34:44.441Z,989.36
2018-06-01T05:35:54.463Z,989.36
2018-06-01T05:37:03.688Z,989.39
2018-06-01T05:38:13.703Z,989.34
2018-06-01T05:39:23.459Z,989.32
2018-06-01T05:40:32.942Z,989.35
2018-06-01T05:41:42.968Z,989.29
2018-06-01T05:42:52.981Z,989.31
2018-06-01T05:44:03.000Z,989.28
2018-06-01T05:45:12.751Z,989.29
2018-06-01T05:46:22.440Z,989.29
2018-06-01T05:47:32.195Z,989.26
2018-06-01T05:48:42.214Z,989.28
2018-06-01T05:49:52.233Z,989.24
2018-06-01T05:51:01.983Z,989.25
2018-06-01T05:52:11.728Z,989.25
2018-06-01T05:53:21.477Z,989.24
2018-06-01T05:54:30.726Z,989.23
2018-06-01T05:55:40.763Z,989.19
2018-06-01T05:56:50.507Z,989.18
2018-06-01T05:58:00.522Z,989.23
2018-06-01T05:59:10.275Z,989.22
2018-06-01T06:00:20.034Z,989.22
2018-06-01T06:01:30.054Z,989.2
2018-06-01T06:02:39.808Z,989.19
2018-06-01T06:03:49.884Z,989.21
2018-06-01T06:04:59.362Z,989.18
2018-06-01T06:06:09.384Z,989.2
2018-06-01T06:07:19.411Z,989.21
2018-06-01T06:08:29.453Z,989.22
2018-06-01T06:09:38.936Z,989.22
2018-06-01T06:10:48.704Z,989.24
2018-06-01T06:11:58.723Z,989.21
2018-06-01T06:13:08.207Z,989.25
2018-06-01T06:14:18.387Z,989.23
2018-06-01T06:15:28.147Z,989.24
2018-06-01T06:16:37.897Z,989.23
2018-06-01T06:17:47.916Z,989.24
2018-06-01T06:18:58.023Z,989.24
2018-06-01T06:20:07.779Z,989.26
2018-06-01T06:21:17.875Z,989.26
2018-06-01T06:22:27.622Z,989.25
2018-06-01T06:23:37.648Z,989.23
2018-06-01T06:24:47.675Z,989.21
2018-06-01T06:25:57.690Z,989.22
2018-06-01T06:27:07.499Z,989.2
2018-06-01T06:28:17.540Z,989.18
2018-06-01T06:29:27.567Z,989.17
2018-06-01T06:30:37.051Z,989.19
2018-06-01T06:31:46.851Z,989.12
2018-06-01T06:32:56.872Z,989.1
2018-06-01T06:34:06.907Z,989.1
2018-06-01T06:35:16.666Z,989.09
2018-06-01T06:36:26.697Z,989.08
2018-06-01T06:37:36.730Z,989.07
2018-06-01T06:38:46.696Z,989.05
2018-06-01T06:39:56.181Z,989.08
2018-06-01T06:41:05.951Z,989.09
2018-06-01T06:42:15.721Z,989.12
2018-06-01T06:43:25.470Z,989.12
2018-06-01T06:44:35.507Z,989.12
2018-06-01T06:45:45.257Z,989.11
2018-06-01T06:46:55.016Z,989.09
2018-06-01T06:48:05.035Z,989.07
2018-06-01T06:49:14.788Z,989.07
2018-06-01T06:50:24.547Z,989.09
2018-06-01T06:51:34.564Z,989.08
2018-06-01T06:52:44.327Z,989.13
2018-06-01T06:53:54.076Z,989.07
2018-06-01T06:55:04.140Z,989.1
2018-06-01T06:56:14.399Z,989.1
2018-06-01T06:57:24.431Z,989.07
2018-06-01T06:58:34.446Z,989.05
2018-06-01T06:59:44.471Z,989.02
2018-06-01T07:00:54.233Z,989.02
2018-06-01T07:02:03.718Z,989.04
2018-06-01T07:03:13.478Z,989.04
2018-06-01T07:04:23.497Z,989.05
2018-06-01T07:05:33.516Z,989
2018-06-01T07:06:43.543Z,989.03
2018-06-01T07:07:53.564Z,989.05
2018-06-01T07:09:03.073Z,989.01
2018-06-01T07:10:12.564Z,988.98
2018-06-01T07:11:22.584Z,989.02
2018-06-01T07:12:32.337Z,989.03
2018-06-01T07:13:42.099Z,989.04
2018-06-01T07:14:52.116Z,989.03
2018-06-01T07:16:01.331Z,989.03
2018-06-01T07:17:11.347Z,989.02
2018-06-01T07:18:20.566Z,989.04
2018-06-01T07:19:30.338Z,989.01
2018-06-01T07:20:40.363Z,988.99
2018-06-01T07:21:50.165Z,988.98
2018-06-01T07:23:00.263Z,989
2018-06-01T07:24:10.018Z,988.97
2018-06-01T07:25:20.107Z,988.96
2018-06-01T07:26:29.856Z,988.99
2018-06-01T07:27:39.901Z,988.96
2018-06-01T07:28:50.025Z,988.99
2018-06-01T07:29:59.242Z,988.98
2018-06-01T07:31:08.997Z,989
2018-06-01T07:32:19.033Z,988.97
2018-06-01T07:33:28.786Z,988.96
2018-06-01T07:34:38.814Z,988.98
2018-06-01T07:35:48.828Z,988.95
2018-06-01T07:36:58.879Z,988.95
2018-06-01T07:38:08.646Z,988.99
2018-06-01T07:39:18.405Z,988.96
2018-06-01T07:40:28.154Z,988.93
2018-06-01T07:41:38.175Z,988.96
2018-06-01T07:42:48.200Z,988.95
2018-06-01T07:43:58.217Z,988.94
2018-06-01T07:45:07.447Z,988.92
2018-06-01T07:46:17.468Z,988.93
2018-06-01T07:47:27.496Z,988.91
2018-06-01T07:48:37.321Z,988.86
2018-06-01T07:49:47.070Z,988.86
2018-06-01T07:50:57.095Z,988.87
2018-06-01T07:52:06.908Z,988.87
2018-06-01T07:53:16.394Z,988.92
2018-06-01T07:54:26.155Z,988.9
2018-06-01T07:55:36.043Z,988.9
2018-06-01T07:56:46.061Z,988.93
2018-06-01T07:57:56.086Z,988.94
2018-06-01T07:59:06.105Z,988.9
2018-06-01T08:00:16.123Z,988.95
2018-06-01T08:01:25.873Z,988.94
2018-06-01T08:02:35.945Z,988.92
2018-06-01T08:03:45.959Z,988.9
2018-06-01T08:04:55.709Z,988.88
2018-06-01T08:06:05.496Z,988.89
2018-06-01T08:07:15.521Z,988.89
2018-06-01T08:08:25.023Z,988.89
2018-06-01T08:09:35.060Z,988.89
2018-06-01T08:10:44.805Z,988.87
2018-06-01T08:11:54.706Z,988.88
2018-06-01T08:13:04.188Z,988.86
2018-06-01T08:14:13.670Z,988.84
2018-06-01T08:15:23.700Z,988.86
2018-06-01T08:16:33.457Z,988.84
2018-06-01T08:17:43.480Z,988.82
2018-06-01T08:18:53.234Z,988.8
2018-06-01T08:20:03.250Z,988.85
2018-06-01T08:21:12.784Z,988.81
2018-06-01T08:22:22.807Z,988.85
2018-06-01T08:23:32.894Z,988.85
2018-06-01T08:24:42.924Z,988.86
2018-06-01T08:25:52.676Z,988.84
2018-06-01T08:27:02.464Z,988.81
2018-06-01T08:28:12.669Z,988.82
2018-06-01T08:29:22.706Z,988.77
2018-06-01T08:30:32.764Z,988.79
2018-06-01T08:31:42.784Z,988.76
2018-06-01T08:32:52.806Z,988.76
2018-06-01T08:34:02.292Z,988.76
2018-06-01T08:35:11.782Z,988.77
2018-06-01T08:36:21.538Z,988.78
2018-06-01T08:37:31.298Z,988.77
2018-06-01T08:38:41.318Z,988.79
2018-06-01T08:39:51.078Z,988.76
2018-06-01T08:41:00.882Z,988.73
2018-06-01T08:42:10.096Z,988.73
2018-06-01T08:43:20.126Z,988.75
2018-06-01T08:44:30.168Z,988.76
2018-06-01T08:45:40.191Z,988.73
2018-06-01T08:46:50.208Z,988.74
2018-06-01T08:47:59.959Z,988.77
2018-06-01T08:49:09.712Z,988.76
2018-06-01T08:50:19.201Z,988.74
2018-06-01T08:51:29.233Z,988.72
2018-06-01T08:52:39.253Z,988.72
2018-06-01T08:53:49.270Z,988.77
2018-06-01T08:54:59.292Z,988.74
2018-06-01T08:56:09.321Z,988.76
2018-06-01T08:57:19.346Z,988.75
2018-06-01T08:58:29.364Z,988.71
2018-06-01T08:59:39.408Z,988.75
2018-06-01T09:00:49.433Z,988.72
2018-06-01T09:01:59.196Z,988.73
2018-06-01T09:03:08.947Z,988.73
2018-06-01T09:04:18.964Z,988.71
2018-06-01T09:05:28.455Z,988.7
2018-06-01T09:06:38.208Z,988.66
2018-06-01T09:07:48.233Z,988.72
2018-06-01T09:08:57.983Z,988.72
2018-06-01T09:10:07.228Z,988.67
2018-06-01T09:11:17.418Z,988.66
2018-06-01T09:12:27.435Z,988.67
2018-06-01T09:13:36.925Z,988.66
2018-06-01T09:14:46.673Z,988.57
2018-06-01T09:15:56.435Z,988.53
2018-06-01T09:17:05.928Z,988.57
2018-06-01T09:18:15.952Z,988.56
2018-06-01T09:19:25.977Z,988.53
2018-06-01T09:20:35.737Z,988.52
2018-06-01T09:21:45.761Z,988.53
2018-06-01T09:22:55.784Z,988.55
2018-06-01T09:24:05.273Z,988.52
2018-06-01T09:25:15.021Z,988.5
2018-06-01T09:26:24.515Z,988.51
2018-06-01T09:27:34.421Z,988.51
2018-06-01T09:28:43.913Z,988.47
2018-06-01T09:29:53.674Z,988.47
2018-06-01T09:31:03.162Z,988.5
2018-06-01T09:32:13.197Z,988.46
2018-06-01T09:33:23.238Z,988.46
2018-06-01T09:34:32.997Z,988.46
2018-06-01T09:35:42.747Z,988.44
2018-06-01T09:36:52.499Z,988.42
2018-06-01T09:38:02.552Z,988.41
2018-06-01T09:39:12.631Z,988.43
2018-06-01T09:40:22.649Z,988.39
2018-06-01T09:41:32.672Z,988.43
2018-06-01T09:42:42.429Z,988.4
2018-06-01T09:43:51.917Z,988.41
2018-06-01T09:45:01.937Z,988.4
2018-06-01T09:46:11.714Z,988.37
2018-06-01T09:47:21.477Z,988.34
2018-06-01T09:48:31.337Z,988.36
2018-06-01T09:49:41.098Z,988.34
2018-06-01T09:50:50.867Z,988.33
2018-06-01T09:52:00.894Z,988.33
2018-06-01T09:53:10.425Z,988.32
2018-06-01T09:54:20.185Z,988.3
2018-06-01T09:55:30.267Z,988.3
2018-06-01T09:56:40.409Z,988.25
2018-06-01T09:57:50.448Z,988.27
2018-06-01T09:58:59.939Z,988.21
2018-06-01T10:00:09.969Z,988.22
2018-06-01T10:01:19.456Z,988.21
2018-06-01T10:02:28.955Z,988.19
2018-06-01T10:03:38.765Z,988.19
2018-06-01T10:04:48.518Z,988.16
2018-06-01T10:05:58.013Z,988.21
2018-06-01T10:07:07.770Z,988.21
2018-06-01T10:08:17.790Z,988.19
2018-06-01T10:09:27.818Z,988.18
2018-06-01T10:10:37.841Z,988.16
2018-06-01T10:11:47.596Z,988.17
2018-06-01T10:12:57.621Z,988.18
2018-06-01T10:14:07.643Z,988.1
2018-06-01T10:15:17.665Z,988.12
2018-06-01T10:16:27.153Z,988.08
2018-06-01T10:17:37.177Z,988.1
2018-06-01T10:18:46.934Z,988.09
2018-06-01T10:19:56.693Z,988.05
2018-06-01T10:21:06.718Z,988.08
2018-06-01T10:22:16.479Z,988.08
2018-06-01T10:23:26.504Z,988.09
2018-06-01T10:24:36.255Z,988.07
2018-06-01T10:25:46.280Z,988.06
2018-06-01T10:26:56.030Z,988.04
2018-06-01T10:28:05.788Z,988.07
2018-06-01T10:29:15.810Z,988.04
2018-06-01T10:30:25.568Z,988.05
2018-06-01T10:31:35.083Z,988.06
2018-06-01T10:32:45.156Z,988.03
2018-06-01T10:33:54.931Z,987.98
2018-06-01T10:35:04.684Z,987.98
2018-06-01T10:36:14.174Z,987.98
2018-06-01T10:37:24.249Z,987.97
2018-06-01T10:38:34.274Z,987.97
2018-06-01T10:39:44.035Z,987.89
2018-06-01T10:40:54.057Z,987.92
2018-06-01T10:42:03.542Z,987.92
2018-06-01T10:43:13.297Z,987.88
2018-06-01T10:44:23.051Z,987.84
2018-06-01T10:45:32.863Z,987.9
2018-06-01T10:46:42.882Z,987.87
2018-06-01T10:47:52.897Z,987.87
2018-06-01T10:49:02.924Z,987.83
2018-06-01T10:50:12.418Z,987.78
2018-06-01T10:51:22.183Z,987.78
2018-06-01T10:52:32.203Z,987.69
2018-06-01T10:53:42.230Z,987.69
2018-06-01T10:54:51.988Z,987.67
2018-06-01T10:56:01.477Z,987.6
2018-06-01T10:57:11.238Z,987.63
2018-06-01T10:58:21.264Z,987.6
2018-06-01T10:59:31.027Z,987.57
2018-06-01T11:00:41.207Z,987.55
2018-06-01T11:01:51.225Z,987.5
2018-06-01T11:03:00.982Z,987.54
2018-06-01T11:04:10.738Z,987.51
2018-06-01T11:05:20.756Z,987.5
2018-06-01T11:06:30.360Z,987.49
2018-06-01T11:07:39.589Z,987.44
2018-06-01T11:08:49.622Z,987.43
2018-06-01T11:09:59.648Z,987.42
2018-06-01T11:11:09.145Z,987.39
2018-06-01T11:12:18.929Z,987.36
2018-06-01T11:13:28.960Z,987.42
2018-06-01T11:14:39.043Z,987.43
2018-06-01T11:15:48.270Z,987.37
2018-06-01T11:16:58.031Z,987.36
2018-06-01T11:18:08.079Z,987.36
2018-06-01T11:19:18.105Z,987.32
2018-06-01T11:20:27.869Z,987.3
2018-06-01T11:21:37.401Z,987.32
2018-06-01T11:22:47.199Z,987.23
2018-06-01T11:23:56.693Z,987.22
2018-06-01T11:25:06.184Z,987.22
2018-06-01T11:26:15.680Z,987.2
2018-06-01T11:27:25.730Z,987.18
2018-06-01T11:28:35.493Z,987.15
2018-06-01T11:29:45.528Z,987.19
2018-06-01T11:30:55.283Z,987.16
2018-06-01T11:32:05.047Z,987.17
2018-06-01T11:33:14.551Z,987.23
2018-06-01T11:34:24.578Z,987.22
2018-06-01T11:35:34.371Z,987.29
2018-06-01T11:36:44.132Z,987.33
2018-06-01T11:37:53.624Z,987.3
2018-06-01T11:39:03.646Z,987.32
2018-06-01T11:40:12.875Z,987.3
2018-06-01T11:41:22.902Z,987.32
2018-06-01T11:42:32.660Z,987.2
2018-06-01T11:43:42.419Z,987.24
2018-06-01T11:44:52.452Z,987.16
2018-06-01T11:46:01.946Z,987.11
2018-06-01T11:47:11.217Z,987.14
2018-06-01T11:48:20.706Z,987.12
2018-06-01T11:49:30.204Z,987.09
2018-06-01T11:50:40.243Z,987.12
2018-06-01T11:51:50.008Z,987.11
2018-06-01T11:52:59.777Z,987.09
2018-06-01T11:54:09.816Z,987.04
2018-06-01T11:55:19.855Z,987.06
2018-06-01T11:56:29.641Z,987.05
2018-06-01T11:57:39.405Z,987.11
2018-06-01T11:58:48.635Z,987.08
2018-06-01T11:59:58.675Z,987.11
2018-06-01T12:01:08.445Z,987.18
2018-06-01T12:02:18.484Z,987.17
2018-06-01T12:03:28.264Z,987.19
2018-06-01T12:04:38.111Z,987.29
2018-06-01T12:05:48.151Z,987.13
2018-06-01T12:06:58.180Z,987.22
2018-06-01T12:08:07.684Z,987.14
2018-06-01T12:09:17.719Z,987.15
2018-06-01T12:10:27.753Z,987.22
2018-06-01T12:11:37.261Z,987.14
2018-06-01T12:12:47.031Z,987.13
2018-06-01T12:13:57.074Z,987.17
2018-06-01T12:15:07.116Z,987.15
2018-06-01T12:16:17.258Z,987.15
2018-06-01T12:17:27.041Z,987.14
2018-06-01T12:18:37.064Z,987.18
2018-06-01T12:19:47.109Z,987.14
2018-06-01T12:20:57.159Z,987.08
2018-06-01T12:22:07.248Z,987.14
2018-06-01T12:23:17.321Z,987.06
2018-06-01T12:24:27.503Z,987.01
2018-06-01T12:25:37.551Z,987
2018-06-01T12:26:47.592Z,986.92
2018-06-01T12:27:57.355Z,986.93
2018-06-01T12:29:07.144Z,986.81
2018-06-01T12:30:17.642Z,986.92
2018-06-01T12:31:27.412Z,986.83
2018-06-01T12:32:37.182Z,986.86
2018-06-01T12:33:47.370Z,986.9
2018-06-01T12:34:57.414Z,986.89
2018-06-01T12:36:06.922Z,986.87
2018-06-01T12:37:16.688Z,986.89
2018-06-01T12:38:26.775Z,986.85
2018-06-01T12:39:36.543Z,986.9
2018-06-01T12:40:46.044Z,986.94
2018-06-01T12:41:56.086Z,986.95
2018-06-01T12:43:05.558Z,987
2018-06-01T12:44:16.059Z,986.94
2018-06-01T12:45:25.567Z,986.97
2018-06-01T12:46:35.343Z,986.96
2018-06-01T12:47:44.843Z,986.97
2018-06-01T12:48:54.877Z,986.99
2018-06-01T12:50:04.639Z,987.01
2018-06-01T12:51:13.600Z,987.05
2018-06-01T12:52:23.631Z,987.04
2018-06-01T12:53:33.140Z,987.04
2018-06-01T12:54:43.165Z,987.06
2018-06-01T12:55:53.191Z,987.04
2018-06-01T12:57:03.221Z,987.05
2018-06-01T12:58:12.991Z,987.14
2018-06-01T12:59:23.024Z,987.12
2018-06-01T13:00:33.057Z,987.1
2018-06-01T13:01:42.019Z,987.06
2018-06-01T13:02:51.510Z,987.07
2018-06-01T13:04:01.272Z,987.06
2018-06-01T13:05:11.053Z,987.05
2018-06-01T13:06:21.081Z,987.03
2018-06-01T13:07:31.108Z,987
2018-06-01T13:08:41.132Z,986.97
2018-06-01T13:09:51.115Z,986.98
2018-06-01T13:11:00.877Z,987
2018-06-01T13:12:10.638Z,987
2018-06-01T13:13:20.669Z,987.01
2018-06-01T13:14:30.700Z,987.01
2018-06-01T13:15:40.204Z,987
2018-06-01T13:16:50.005Z,987.04
2018-06-01T13:18:00.047Z,987.09
2018-06-01T13:19:09.819Z,987.08
2018-06-01T13:20:19.584Z,987.05
2018-06-01T13:21:29.387Z,987.04
2018-06-01T13:22:39.409Z,987.06
2018-06-01T13:23:49.443Z,987.1
2018-06-01T13:24:58.934Z,987.1
2018-06-01T13:26:08.759Z,987.1
2018-06-01T13:27:17.985Z,987.12
2018-06-01T13:28:28.027Z,987.06
2018-06-01T13:29:37.516Z,987.08
2018-06-01T13:30:47.595Z,987.11
2018-06-01T13:31:57.082Z,987.09
2018-06-01T13:33:06.575Z,987.04
2018-06-01T13:34:16.069Z,987
2018-06-01T13:35:25.876Z,987.07
2018-06-01T13:36:35.354Z,987.11
2018-06-01T13:37:45.107Z,987.1
2018-06-01T13:38:54.646Z,987.11
2018-06-01T13:40:04.670Z,987.11
2018-06-01T13:41:14.693Z,987.13
2018-06-01T13:42:24.185Z,987.18
2018-06-01T13:43:33.677Z,987.21
2018-06-01T13:44:43.699Z,987.28
2018-06-01T13:45:53.727Z,987.3
2018-06-01T13:47:03.746Z,987.4
2018-06-01T13:48:13.782Z,987.42
2018-06-01T13:49:23.535Z,987.41
2018-06-01T13:50:33.292Z,987.47
2018-06-01T13:51:43.538Z,987.4
2018-06-01T13:52:53.569Z,987.32
2018-06-01T13:54:03.593Z,987.38
2018-06-01T13:55:13.084Z,987.3
2018-06-01T13:56:23.123Z,987.35
2018-06-01T13:57:32.878Z,987.31
2018-06-01T13:58:42.648Z,987.42
2018-06-01T13:59:52.678Z,987.42
2018-06-01T14:01:02.440Z,987.31
2018-06-01T14:02:11.933Z,987.31
2018-06-01T14:03:21.160Z,987.32
2018-06-01T14:04:31.181Z,987.3
2018-06-01T14:05:41.204Z,987.35
2018-06-01T14:06:51.080Z,987.33
2018-06-01T14:08:01.118Z,987.33
2018-06-01T14:09:10.872Z,987.33
2018-06-01T14:10:21.021Z,987.33
2018-06-01T14:11:31.047Z,987.35
2018-06-01T14:12:40.802Z,987.33
2018-06-01T14:13:50.561Z,987.3
2018-06-01T14:15:00.601Z,987.3
2018-06-01T14:16:10.092Z,987.29
2018-06-01T14:17:20.111Z,987.3
2018-06-01T14:18:29.866Z,987.29
2018-06-01T14:19:39.631Z,987.25
2018-06-01T14:20:49.664Z,987.24
2018-06-01T14:21:59.682Z,987.3
2018-06-01T14:23:09.168Z,987.29
2018-06-01T14:24:19.291Z,987.27
2018-06-01T14:25:29.309Z,987.28
2018-06-01T14:26:39.107Z,987.25
2018-06-01T14:27:49.312Z,987.31
2018-06-01T14:28:59.068Z,987.35
2018-06-01T14:30:08.289Z,987.25
2018-06-01T14:31:18.053Z,987.23
2018-06-01T14:32:27.803Z,987.25
2018-06-01T14:33:37.297Z,987.2
2018-06-01T14:34:47.054Z,987.23
2018-06-01T14:35:57.151Z,987.24
2018-06-01T14:37:06.686Z,987.21